sensor_id;sensor_type;location;lat;lon;timestamp;P1;durP1;ratioP1;P2;durP2;ratioP2
68214;SDS011;55036;52.138;5.236;2023-04-25T00:01:16;13.90;;;4.03;;
68214;SDS011;55036;52.138;5.236;2023-04-25T00:03:42;10.48;;;2.83;;
68214;SDS011;55036;52.138;5.236;2023-04-25T00:06:09;11.77;;;4.07;;
68214;SDS011;55036;52.138;5.236;2023-04-25T00:08:36;12.85;;;3.60;;
68214;SDS011;55036;52.138;5.236;2023-04-25T00:11:03;12.57;;;3.67;;
68214;SDS011;55036;52.138;5.236;2023-04-25T00:13:30;17.02;;;3.53;;
68214;SDS011;55036;52.138;5.236;2023-04-25T00:15:56;12.55;;;3.40;;
68214;SDS011;55036;52.138;5.236;2023-04-25T00:18:24;10.95;;;3.03;;
68214;SDS011;55036;52.138;5.236;2023-04-25T00:20:51;13.00;;;3.42;;
68214;SDS011;55036;52.138;5.236;2023-04-25T00:23:17;11.63;;;3.65;;
68214;SDS011;55036;52.138;5.236;2023-04-25T00:25:45;14.73;;;3.67;;
68214;SDS011;55036;52.138;5.236;2023-04-25T00:28:12;18.33;;;3.63;;
68214;SDS011;55036;52.138;5.236;2023-04-25T00:30:39;18.85;;;3.00;;
68214;SDS011;55036;52.138;5.236;2023-04-25T00:33:07;9.40;;;3.30;;
68214;SDS011;55036;52.138;5.236;2023-04-25T00:35:34;10.82;;;3.08;;
68214;SDS011;55036;52.138;5.236;2023-04-25T00:38:01;11.05;;;3.63;;
68214;SDS011;55036;52.138;5.236;2023-04-25T00:40:27;13.98;;;3.88;;
68214;SDS011;55036;52.138;5.236;2023-04-25T00:42:54;12.13;;;3.60;;
68214;SDS011;55036;52.138;5.236;2023-04-25T00:45:21;20.13;;;3.47;;
68214;SDS011;55036;52.138;5.236;2023-04-25T00:47:52;16.63;;;3.65;;
68214;SDS011;55036;52.138;5.236;2023-04-25T00:50:20;14.73;;;3.63;;
68214;SDS011;55036;52.138;5.236;2023-04-25T00:52:47;12.32;;;3.55;;
68214;SDS011;55036;52.138;5.236;2023-04-25T00:55:13;13.88;;;3.40;;
68214;SDS011;55036;52.138;5.236;2023-04-25T00:57:42;13.32;;;4.30;;
68214;SDS011;55036;52.138;5.236;2023-04-25T01:00:09;15.88;;;3.85;;
68214;SDS011;55036;52.138;5.236;2023-04-25T01:02:37;14.55;;;3.65;;
68214;SDS011;55036;52.138;5.236;2023-04-25T01:05:04;12.32;;;3.28;;
68214;SDS011;55036;52.138;5.236;2023-04-25T01:07:31;12.10;;;3.33;;
68214;SDS011;55036;52.138;5.236;2023-04-25T01:09:57;13.43;;;3.40;;
68214;SDS011;55036;52.138;5.236;2023-04-25T01:12:24;16.60;;;3.95;;
68214;SDS011;55036;52.138;5.236;2023-04-25T01:14:51;10.77;;;3.60;;
68214;SDS011;55036;52.138;5.236;2023-04-25T01:17:18;11.90;;;4.07;;
68214;SDS011;55036;52.138;5.236;2023-04-25T01:19:45;14.57;;;3.25;;
68214;SDS011;55036;52.138;5.236;2023-04-25T01:22:14;10.20;;;3.47;;
68214;SDS011;55036;52.138;5.236;2023-04-25T01:24:41;11.15;;;3.15;;
68214;SDS011;55036;52.138;5.236;2023-04-25T01:27:08;10.23;;;3.53;;
68214;SDS011;55036;52.138;5.236;2023-04-25T01:29:35;18.48;;;4.05;;
68214;SDS011;55036;52.138;5.236;2023-04-25T01:32:02;14.00;;;3.20;;
68214;SDS011;55036;52.138;5.236;2023-04-25T01:34:29;14.40;;;3.35;;
68214;SDS011;55036;52.138;5.236;2023-04-25T01:36:56;8.52;;;3.38;;
68214;SDS011;55036;52.138;5.236;2023-04-25T01:39:25;12.77;;;3.28;;
68214;SDS011;55036;52.138;5.236;2023-04-25T01:41:51;11.70;;;3.03;;
68214;SDS011;55036;52.138;5.236;2023-04-25T01:44:18;19.30;;;3.47;;
68214;SDS011;55036;52.138;5.236;2023-04-25T01:46:45;18.05;;;3.83;;
68214;SDS011;55036;52.138;5.236;2023-04-25T01:49:11;10.73;;;3.35;;
68214;SDS011;55036;52.138;5.236;2023-04-25T01:51:38;11.20;;;3.50;;
68214;SDS011;55036;52.138;5.236;2023-04-25T01:54:05;12.15;;;2.78;;
68214;SDS011;55036;52.138;5.236;2023-04-25T01:56:32;10.32;;;3.30;;
68214;SDS011;55036;52.138;5.236;2023-04-25T01:58:59;9.57;;;2.85;;
68214;SDS011;55036;52.138;5.236;2023-04-25T02:01:26;11.32;;;3.65;;
68214;SDS011;55036;52.138;5.236;2023-04-25T02:03:53;10.45;;;3.40;;
68214;SDS011;55036;52.138;5.236;2023-04-25T02:06:20;13.48;;;3.03;;
68214;SDS011;55036;52.138;5.236;2023-04-25T02:08:47;12.77;;;3.33;;
68214;SDS011;55036;52.138;5.236;2023-04-25T02:11:14;9.93;;;3.30;;
68214;SDS011;55036;52.138;5.236;2023-04-25T02:13:40;11.90;;;3.35;;
68214;SDS011;55036;52.138;5.236;2023-04-25T02:16:07;9.85;;;2.95;;
68214;SDS011;55036;52.138;5.236;2023-04-25T02:18:34;9.45;;;3.15;;
68214;SDS011;55036;52.138;5.236;2023-04-25T02:21:03;9.32;;;3.03;;
68214;SDS011;55036;52.138;5.236;2023-04-25T02:23:30;8.48;;;3.10;;
68214;SDS011;55036;52.138;5.236;2023-04-25T02:25:56;16.38;;;3.67;;
68214;SDS011;55036;52.138;5.236;2023-04-25T02:28:24;10.45;;;3.08;;
68214;SDS011;55036;52.138;5.236;2023-04-25T02:30:52;7.25;;;2.72;;
68214;SDS011;55036;52.138;5.236;2023-04-25T02:33:19;9.07;;;3.55;;
68214;SDS011;55036;52.138;5.236;2023-04-25T02:35:47;10.43;;;3.40;;
68214;SDS011;55036;52.138;5.236;2023-04-25T02:38:14;10.20;;;3.22;;
68214;SDS011;55036;52.138;5.236;2023-04-25T02:40:40;10.30;;;3.53;;
68214;SDS011;55036;52.138;5.236;2023-04-25T02:43:07;15.15;;;3.65;;
68214;SDS011;55036;52.138;5.236;2023-04-25T02:45:34;13.50;;;3.60;;
68214;SDS011;55036;52.138;5.236;2023-04-25T02:48:02;7.18;;;3.20;;
68214;SDS011;55036;52.138;5.236;2023-04-25T02:50:29;12.55;;;3.42;;
68214;SDS011;55036;52.138;5.236;2023-04-25T02:52:56;15.57;;;3.97;;
68214;SDS011;55036;52.138;5.236;2023-04-25T02:55:22;13.63;;;3.17;;
68214;SDS011;55036;52.138;5.236;2023-04-25T02:57:52;11.25;;;4.10;;
68214;SDS011;55036;52.138;5.236;2023-04-25T03:00:21;7.35;;;3.10;;
68214;SDS011;55036;52.138;5.236;2023-04-25T03:02:48;10.88;;;3.20;;
68214;SDS011;55036;52.138;5.236;2023-04-25T03:05:15;12.63;;;3.33;;
68214;SDS011;55036;52.138;5.236;2023-04-25T03:07:42;12.70;;;3.90;;
68214;SDS011;55036;52.138;5.236;2023-04-25T03:10:10;14.27;;;3.28;;
68214;SDS011;55036;52.138;5.236;2023-04-25T03:12:37;15.15;;;4.70;;
68214;SDS011;55036;52.138;5.236;2023-04-25T03:15:04;10.15;;;3.53;;
68214;SDS011;55036;52.138;5.236;2023-04-25T03:17:32;15.68;;;3.47;;
68214;SDS011;55036;52.138;5.236;2023-04-25T03:19:58;10.38;;;3.60;;
68214;SDS011;55036;52.138;5.236;2023-04-25T03:22:25;11.15;;;3.78;;
68214;SDS011;55036;52.138;5.236;2023-04-25T03:24:52;12.23;;;3.85;;
68214;SDS011;55036;52.138;5.236;2023-04-25T03:27:18;12.23;;;3.67;;
68214;SDS011;55036;52.138;5.236;2023-04-25T03:29:45;14.55;;;3.38;;
68214;SDS011;55036;52.138;5.236;2023-04-25T03:32:12;15.25;;;3.30;;
68214;SDS011;55036;52.138;5.236;2023-04-25T03:34:39;9.23;;;3.70;;
68214;SDS011;55036;52.138;5.236;2023-04-25T03:37:06;10.57;;;3.20;;
68214;SDS011;55036;52.138;5.236;2023-04-25T03:39:32;11.27;;;3.13;;
68214;SDS011;55036;52.138;5.236;2023-04-25T03:41:59;10.93;;;3.85;;
68214;SDS011;55036;52.138;5.236;2023-04-25T03:44:27;13.63;;;2.63;;
68214;SDS011;55036;52.138;5.236;2023-04-25T03:46:53;10.30;;;2.85;;
68214;SDS011;55036;52.138;5.236;2023-04-25T03:49:20;12.55;;;3.38;;
68214;SDS011;55036;52.138;5.236;2023-04-25T03:51:47;9.05;;;3.33;;
68214;SDS011;55036;52.138;5.236;2023-04-25T03:54:13;10.45;;;2.85;;
68214;SDS011;55036;52.138;5.236;2023-04-25T03:56:40;6.65;;;2.78;;
68214;SDS011;55036;52.138;5.236;2023-04-25T03:59:06;11.55;;;2.50;;
68214;SDS011;55036;52.138;5.236;2023-04-25T04:01:34;8.43;;;2.63;;
68214;SDS011;55036;52.138;5.236;2023-04-25T04:04:01;10.75;;;2.63;;
68214;SDS011;55036;52.138;5.236;2023-04-25T04:06:29;7.72;;;2.20;;
68214;SDS011;55036;52.138;5.236;2023-04-25T04:08:56;7.15;;;2.45;;
68214;SDS011;55036;52.138;5.236;2023-04-25T04:11:22;12.35;;;2.83;;
68214;SDS011;55036;52.138;5.236;2023-04-25T04:13:49;6.30;;;2.00;;
68214;SDS011;55036;52.138;5.236;2023-04-25T04:16:16;5.90;;;1.80;;
68214;SDS011;55036;52.138;5.236;2023-04-25T04:18:43;7.10;;;2.15;;
68214;SDS011;55036;52.138;5.236;2023-04-25T04:21:10;8.65;;;1.98;;
68214;SDS011;55036;52.138;5.236;2023-04-25T04:23:37;11.38;;;2.22;;
68214;SDS011;55036;52.138;5.236;2023-04-25T04:26:05;8.93;;;2.50;;
68214;SDS011;55036;52.138;5.236;2023-04-25T04:28:33;9.23;;;2.20;;
68214;SDS011;55036;52.138;5.236;2023-04-25T04:31:00;11.98;;;2.70;;
68214;SDS011;55036;52.138;5.236;2023-04-25T04:33:27;3.28;;;1.77;;
68214;SDS011;55036;52.138;5.236;2023-04-25T04:35:54;11.25;;;2.30;;
68214;SDS011;55036;52.138;5.236;2023-04-25T04:38:21;7.82;;;2.22;;
68214;SDS011;55036;52.138;5.236;2023-04-25T04:40:48;9.68;;;2.40;;
68214;SDS011;55036;52.138;5.236;2023-04-25T04:43:15;7.45;;;2.03;;
68214;SDS011;55036;52.138;5.236;2023-04-25T04:45:43;6.20;;;1.67;;
68214;SDS011;55036;52.138;5.236;2023-04-25T04:48:10;6.28;;;1.80;;
68214;SDS011;55036;52.138;5.236;2023-04-25T04:50:40;9.70;;;2.08;;
68214;SDS011;55036;52.138;5.236;2023-04-25T04:53:07;9.40;;;2.00;;
68214;SDS011;55036;52.138;5.236;2023-04-25T04:55:33;9.02;;;2.17;;
68214;SDS011;55036;52.138;5.236;2023-04-25T04:58:00;10.65;;;2.28;;
68214;SDS011;55036;52.138;5.236;2023-04-25T05:00:27;7.55;;;2.00;;
68214;SDS011;55036;52.138;5.236;2023-04-25T05:02:55;7.90;;;1.80;;
68214;SDS011;55036;52.138;5.236;2023-04-25T05:05:23;8.43;;;1.90;;
68214;SDS011;55036;52.138;5.236;2023-04-25T05:07:50;12.38;;;2.13;;
68214;SDS011;55036;52.138;5.236;2023-04-25T05:10:17;5.47;;;1.85;;
68214;SDS011;55036;52.138;5.236;2023-04-25T05:12:44;7.68;;;1.73;;
68214;SDS011;55036;52.138;5.236;2023-04-25T05:15:11;8.48;;;1.80;;
68214;SDS011;55036;52.138;5.236;2023-04-25T05:17:38;6.60;;;1.90;;
68214;SDS011;55036;52.138;5.236;2023-04-25T05:20:08;5.50;;;1.70;;
68214;SDS011;55036;52.138;5.236;2023-04-25T05:22:35;10.25;;;1.77;;
68214;SDS011;55036;52.138;5.236;2023-04-25T05:25:02;7.35;;;1.95;;
68214;SDS011;55036;52.138;5.236;2023-04-25T05:27:29;8.32;;;1.73;;
68214;SDS011;55036;52.138;5.236;2023-04-25T05:29:56;6.28;;;1.90;;
68214;SDS011;55036;52.138;5.236;2023-04-25T05:32:23;14.07;;;2.55;;
68214;SDS011;55036;52.138;5.236;2023-04-25T05:34:51;6.57;;;1.65;;
68214;SDS011;55036;52.138;5.236;2023-04-25T05:37:18;5.72;;;1.35;;
68214;SDS011;55036;52.138;5.236;2023-04-25T05:39:44;9.18;;;2.15;;
68214;SDS011;55036;52.138;5.236;2023-04-25T05:42:11;8.23;;;2.05;;
68214;SDS011;55036;52.138;5.236;2023-04-25T05:44:38;7.75;;;1.65;;
68214;SDS011;55036;52.138;5.236;2023-04-25T05:47:04;5.85;;;1.40;;
68214;SDS011;55036;52.138;5.236;2023-04-25T05:49:31;8.10;;;2.03;;
68214;SDS011;55036;52.138;5.236;2023-04-25T05:51:58;5.80;;;1.65;;
68214;SDS011;55036;52.138;5.236;2023-04-25T05:54:25;5.72;;;1.88;;
68214;SDS011;55036;52.138;5.236;2023-04-25T05:56:51;8.32;;;1.50;;
68214;SDS011;55036;52.138;5.236;2023-04-25T05:59:18;8.07;;;1.95;;
68214;SDS011;55036;52.138;5.236;2023-04-25T06:01:45;7.63;;;1.83;;
68214;SDS011;55036;52.138;5.236;2023-04-25T06:04:12;7.45;;;1.95;;
68214;SDS011;55036;52.138;5.236;2023-04-25T06:06:39;6.40;;;1.95;;
68214;SDS011;55036;52.138;5.236;2023-04-25T06:09:06;8.52;;;1.60;;
68214;SDS011;55036;52.138;5.236;2023-04-25T06:11:33;7.28;;;1.92;;
68214;SDS011;55036;52.138;5.236;2023-04-25T06:13:59;10.70;;;1.75;;
68214;SDS011;55036;52.138;5.236;2023-04-25T06:16:26;8.75;;;1.63;;
68214;SDS011;55036;52.138;5.236;2023-04-25T06:18:53;7.93;;;2.13;;
68214;SDS011;55036;52.138;5.236;2023-04-25T06:21:20;6.15;;;1.65;;
68214;SDS011;55036;52.138;5.236;2023-04-25T06:23:46;8.25;;;1.58;;
68214;SDS011;55036;52.138;5.236;2023-04-25T06:26:13;8.10;;;2.63;;
68214;SDS011;55036;52.138;5.236;2023-04-25T06:28:40;6.82;;;1.58;;
68214;SDS011;55036;52.138;5.236;2023-04-25T06:31:07;5.65;;;1.67;;
68214;SDS011;55036;52.138;5.236;2023-04-25T06:33:34;10.30;;;1.75;;
68214;SDS011;55036;52.138;5.236;2023-04-25T06:36:00;7.78;;;1.77;;
68214;SDS011;55036;52.138;5.236;2023-04-25T06:38:27;10.82;;;1.73;;
68214;SDS011;55036;52.138;5.236;2023-04-25T06:40:54;8.73;;;1.95;;
68214;SDS011;55036;52.138;5.236;2023-04-25T06:43:20;5.55;;;1.40;;
68214;SDS011;55036;52.138;5.236;2023-04-25T06:45:47;10.25;;;1.83;;
68214;SDS011;55036;52.138;5.236;2023-04-25T06:48:14;10.05;;;1.73;;
68214;SDS011;55036;52.138;5.236;2023-04-25T06:50:41;17.15;;;2.00;;
68214;SDS011;55036;52.138;5.236;2023-04-25T06:53:08;11.18;;;2.42;;
68214;SDS011;55036;52.138;5.236;2023-04-25T06:55:35;7.95;;;1.63;;
68214;SDS011;55036;52.138;5.236;2023-04-25T06:58:01;12.05;;;2.08;;
68214;SDS011;55036;52.138;5.236;2023-04-25T07:00:29;8.70;;;1.35;;
68214;SDS011;55036;52.138;5.236;2023-04-25T07:02:56;13.30;;;1.92;;
68214;SDS011;55036;52.138;5.236;2023-04-25T07:05:24;11.07;;;1.92;;
68214;SDS011;55036;52.138;5.236;2023-04-25T07:07:50;7.15;;;1.40;;
68214;SDS011;55036;52.138;5.236;2023-04-25T07:10:17;11.10;;;2.28;;
68214;SDS011;55036;52.138;5.236;2023-04-25T07:12:44;10.23;;;1.92;;
68214;SDS011;55036;52.138;5.236;2023-04-25T07:15:10;10.35;;;1.40;;
68214;SDS011;55036;52.138;5.236;2023-04-25T07:17:37;9.52;;;2.08;;
68214;SDS011;55036;52.138;5.236;2023-04-25T07:20:04;11.30;;;1.80;;
68214;SDS011;55036;52.138;5.236;2023-04-25T07:22:32;9.00;;;1.70;;
68214;SDS011;55036;52.138;5.236;2023-04-25T07:24:59;8.60;;;1.33;;
68214;SDS011;55036;52.138;5.236;2023-04-25T07:27:26;3.03;;;1.10;;
68214;SDS011;55036;52.138;5.236;2023-04-25T07:29:53;8.55;;;1.40;;
68214;SDS011;55036;52.138;5.236;2023-04-25T07:32:20;8.75;;;1.50;;
68214;SDS011;55036;52.138;5.236;2023-04-25T07:34:47;5.35;;;1.35;;
68214;SDS011;55036;52.138;5.236;2023-04-25T07:37:13;9.02;;;1.50;;
68214;SDS011;55036;52.138;5.236;2023-04-25T07:39:41;9.65;;;1.90;;
68214;SDS011;55036;52.138;5.236;2023-04-25T07:42:08;7.75;;;1.35;;
68214;SDS011;55036;52.138;5.236;2023-04-25T07:44:34;5.13;;;1.27;;
68214;SDS011;55036;52.138;5.236;2023-04-25T07:47:08;8.00;;;1.52;;
68214;SDS011;55036;52.138;5.236;2023-04-25T07:49:36;5.60;;;0.90;;
68214;SDS011;55036;52.138;5.236;2023-04-25T07:52:04;7.78;;;1.48;;
68214;SDS011;55036;52.138;5.236;2023-04-25T07:54:32;6.05;;;1.15;;
68214;SDS011;55036;52.138;5.236;2023-04-25T07:56:58;6.03;;;1.58;;
68214;SDS011;55036;52.138;5.236;2023-04-25T07:59:25;10.93;;;1.70;;
68214;SDS011;55036;52.138;5.236;2023-04-25T08:01:55;16.13;;;1.88;;
68214;SDS011;55036;52.138;5.236;2023-04-25T08:04:23;11.32;;;2.00;;
68214;SDS011;55036;52.138;5.236;2023-04-25T08:06:51;11.98;;;2.08;;
68214;SDS011;55036;52.138;5.236;2023-04-25T08:09:19;6.32;;;1.38;;
68214;SDS011;55036;52.138;5.236;2023-04-25T08:11:46;8.70;;;1.70;;
68214;SDS011;55036;52.138;5.236;2023-04-25T08:14:13;7.93;;;1.65;;
68214;SDS011;55036;52.138;5.236;2023-04-25T08:16:40;10.23;;;1.45;;
68214;SDS011;55036;52.138;5.236;2023-04-25T08:19:08;6.53;;;1.23;;
68214;SDS011;55036;52.138;5.236;2023-04-25T08:21:35;8.13;;;1.23;;
68214;SDS011;55036;52.138;5.236;2023-04-25T08:24:02;5.05;;;1.17;;
68214;SDS011;55036;52.138;5.236;2023-04-25T08:26:28;7.05;;;1.40;;
68214;SDS011;55036;52.138;5.236;2023-04-25T08:28:55;7.93;;;1.88;;
68214;SDS011;55036;52.138;5.236;2023-04-25T08:31:22;4.63;;;1.15;;
68214;SDS011;55036;52.138;5.236;2023-04-25T08:33:49;8.80;;;1.10;;
68214;SDS011;55036;52.138;5.236;2023-04-25T08:36:18;8.23;;;1.58;;
68214;SDS011;55036;52.138;5.236;2023-04-25T08:39:03;6.07;;;1.98;;
68214;SDS011;55036;52.138;5.236;2023-04-25T08:41:30;6.75;;;0.90;;
68214;SDS011;55036;52.138;5.236;2023-04-25T08:43:57;4.20;;;0.90;;
68214;SDS011;55036;52.138;5.236;2023-04-25T08:46:26;7.80;;;0.90;;
68214;SDS011;55036;52.138;5.236;2023-04-25T08:48:53;4.93;;;1.30;;
68214;SDS011;55036;52.138;5.236;2023-04-25T08:51:27;5.80;;;1.05;;
68214;SDS011;55036;52.138;5.236;2023-04-25T08:54:01;3.57;;;1.30;;
68214;SDS011;55036;52.138;5.236;2023-04-25T08:56:57;5.00;;;1.30;;
68214;SDS011;55036;52.138;5.236;2023-04-25T08:59:28;5.82;;;1.15;;
68214;SDS011;55036;52.138;5.236;2023-04-25T09:01:55;6.20;;;0.95;;
68214;SDS011;55036;52.138;5.236;2023-04-25T09:04:22;5.50;;;1.30;;
68214;SDS011;55036;52.138;5.236;2023-04-25T09:06:49;6.05;;;1.40;;
68214;SDS011;55036;52.138;5.236;2023-04-25T09:09:16;4.72;;;1.23;;
68214;SDS011;55036;52.138;5.236;2023-04-25T09:11:43;5.38;;;1.30;;
68214;SDS011;55036;52.138;5.236;2023-04-25T09:14:10;8.18;;;1.38;;
68214;SDS011;55036;52.138;5.236;2023-04-25T09:19:24;2.97;;;1.13;;
68214;SDS011;55036;52.138;5.236;2023-04-25T09:21:56;6.30;;;1.10;;
68214;SDS011;55036;52.138;5.236;2023-04-25T09:24:31;5.60;;;1.10;;
68214;SDS011;55036;52.138;5.236;2023-04-25T09:27:07;3.17;;;0.88;;
68214;SDS011;55036;52.138;5.236;2023-04-25T09:29:40;4.60;;;0.95;;
68214;SDS011;55036;52.138;5.236;2023-04-25T09:32:11;4.00;;;1.08;;
68214;SDS011;55036;52.138;5.236;2023-04-25T09:34:43;8.52;;;0.95;;
68214;SDS011;55036;52.138;5.236;2023-04-25T09:37:11;5.20;;;0.93;;
68214;SDS011;55036;52.138;5.236;2023-04-25T09:39:38;5.28;;;1.30;;
68214;SDS011;55036;52.138;5.236;2023-04-25T09:42:05;6.35;;;1.60;;
68214;SDS011;55036;52.138;5.236;2023-04-25T09:44:32;3.67;;;1.00;;
68214;SDS011;55036;52.138;5.236;2023-04-25T09:46:59;5.60;;;1.10;;
68214;SDS011;55036;52.138;5.236;2023-04-25T09:49:26;9.48;;;1.40;;
68214;SDS011;55036;52.138;5.236;2023-04-25T09:51:54;6.95;;;1.30;;
68214;SDS011;55036;52.138;5.236;2023-04-25T09:54:24;5.78;;;1.60;;
68214;SDS011;55036;52.138;5.236;2023-04-25T09:56:52;7.18;;;1.10;;
68214;SDS011;55036;52.138;5.236;2023-04-25T09:59:20;8.95;;;1.30;;
68214;SDS011;55036;52.138;5.236;2023-04-25T10:01:49;3.63;;;1.10;;
68214;SDS011;55036;52.138;5.236;2023-04-25T10:04:19;6.22;;;1.30;;
68214;SDS011;55036;52.138;5.236;2023-04-25T10:06:49;4.25;;;1.05;;
68214;SDS011;55036;52.138;5.236;2023-04-25T10:09:19;6.30;;;1.10;;
68214;SDS011;55036;52.138;5.236;2023-04-25T10:11:47;5.88;;;1.35;;
68214;SDS011;55036;52.138;5.236;2023-04-25T10:14:14;10.48;;;1.20;;
68214;SDS011;55036;52.138;5.236;2023-04-25T10:16:42;5.75;;;1.13;;
68214;SDS011;55036;52.138;5.236;2023-04-25T10:19:09;3.55;;;0.82;;
68214;SDS011;55036;52.138;5.236;2023-04-25T10:21:42;8.20;;;1.15;;
68214;SDS011;55036;52.138;5.236;2023-04-25T10:24:19;5.07;;;1.23;;
68214;SDS011;55036;52.138;5.236;2023-04-25T10:26:47;4.63;;;1.10;;
68214;SDS011;55036;52.138;5.236;2023-04-25T10:29:21;4.93;;;1.13;;
68214;SDS011;55036;52.138;5.236;2023-04-25T10:31:49;5.95;;;1.13;;
68214;SDS011;55036;52.138;5.236;2023-04-25T10:34:17;5.13;;;1.20;;
68214;SDS011;55036;52.138;5.236;2023-04-25T10:36:48;2.88;;;0.93;;
68214;SDS011;55036;52.138;5.236;2023-04-25T10:39:23;7.18;;;1.17;;
68214;SDS011;55036;52.138;5.236;2023-04-25T10:41:53;3.72;;;1.30;;
68214;SDS011;55036;52.138;5.236;2023-04-25T10:44:28;6.20;;;1.25;;
68214;SDS011;55036;52.138;5.236;2023-04-25T10:46:56;5.38;;;1.13;;
68214;SDS011;55036;52.138;5.236;2023-04-25T10:49:30;4.25;;;1.00;;
68214;SDS011;55036;52.138;5.236;2023-04-25T10:54:44;5.95;;;1.20;;
68214;SDS011;55036;52.138;5.236;2023-04-25T11:00:15;3.70;;;0.80;;
68214;SDS011;55036;52.138;5.236;2023-04-25T11:02:55;5.25;;;1.20;;
68214;SDS011;55036;52.138;5.236;2023-04-25T11:07:59;2.75;;;0.75;;
68214;SDS011;55036;52.138;5.236;2023-04-25T11:10:33;2.42;;;0.95;;
68214;SDS011;55036;52.138;5.236;2023-04-25T11:13:03;4.32;;;0.98;;
68214;SDS011;55036;52.138;5.236;2023-04-25T11:15:30;4.00;;;0.77;;
68214;SDS011;55036;52.138;5.236;2023-04-25T11:17:57;3.42;;;0.73;;
68214;SDS011;55036;52.138;5.236;2023-04-25T11:20:25;3.42;;;0.82;;
68214;SDS011;55036;52.138;5.236;2023-04-25T11:22:54;4.05;;;1.02;;
68214;SDS011;55036;52.138;5.236;2023-04-25T11:25:24;3.10;;;0.85;;
68214;SDS011;55036;52.138;5.236;2023-04-25T11:27:55;4.10;;;0.88;;
68214;SDS011;55036;52.138;5.236;2023-04-25T11:30:25;1.95;;;0.60;;
68214;SDS011;55036;52.138;5.236;2023-04-25T11:32:53;3.25;;;1.00;;
68214;SDS011;55036;52.138;5.236;2023-04-25T11:35:20;4.50;;;0.95;;
68214;SDS011;55036;52.138;5.236;2023-04-25T11:37:49;5.43;;;1.20;;
68214;SDS011;55036;52.138;5.236;2023-04-25T11:40:16;3.63;;;0.90;;
68214;SDS011;55036;52.138;5.236;2023-04-25T11:42:43;4.75;;;0.73;;
68214;SDS011;55036;52.138;5.236;2023-04-25T11:45:12;5.80;;;1.10;;
68214;SDS011;55036;52.138;5.236;2023-04-25T11:47:39;5.88;;;1.25;;
68214;SDS011;55036;52.138;5.236;2023-04-25T11:50:07;3.53;;;1.00;;
68214;SDS011;55036;52.138;5.236;2023-04-25T11:52:38;4.28;;;1.13;;
68214;SDS011;55036;52.138;5.236;2023-04-25T11:55:19;5.18;;;0.90;;
68214;SDS011;55036;52.138;5.236;2023-04-25T11:57:48;3.70;;;1.00;;
68214;SDS011;55036;52.138;5.236;2023-04-25T12:02:47;2.72;;;1.10;;
68214;SDS011;55036;52.138;5.236;2023-04-25T12:05:17;6.70;;;1.10;;
68214;SDS011;55036;52.138;5.236;2023-04-25T12:07:58;3.28;;;0.90;;
68214;SDS011;55036;52.138;5.236;2023-04-25T12:10:37;3.60;;;1.00;;
68214;SDS011;55036;52.138;5.236;2023-04-25T12:13:19;2.13;;;0.75;;
68214;SDS011;55036;52.138;5.236;2023-04-25T12:15:50;6.88;;;1.02;;
68214;SDS011;55036;52.138;5.236;2023-04-25T12:18:18;7.18;;;1.40;;
68214;SDS011;55036;52.138;5.236;2023-04-25T12:20:50;6.75;;;0.95;;
68214;SDS011;55036;52.138;5.236;2023-04-25T12:23:24;3.88;;;1.10;;
68214;SDS011;55036;52.138;5.236;2023-04-25T12:25:52;5.07;;;1.23;;
68214;SDS011;55036;52.138;5.236;2023-04-25T12:28:20;2.60;;;1.00;;
68214;SDS011;55036;52.138;5.236;2023-04-25T12:33:24;4.93;;;1.10;;
68214;SDS011;55036;52.138;5.236;2023-04-25T12:35:53;3.63;;;1.05;;
68214;SDS011;55036;52.138;5.236;2023-04-25T12:38:24;6.13;;;1.20;;
68214;SDS011;55036;52.138;5.236;2023-04-25T12:40:52;5.68;;;1.23;;
68214;SDS011;55036;52.138;5.236;2023-04-25T12:43:19;5.05;;;1.63;;
68214;SDS011;55036;52.138;5.236;2023-04-25T12:45:51;3.83;;;1.20;;
68214;SDS011;55036;52.138;5.236;2023-04-25T12:48:18;4.97;;;1.10;;
68214;SDS011;55036;52.138;5.236;2023-04-25T12:50:46;4.35;;;1.00;;
68214;SDS011;55036;52.138;5.236;2023-04-25T12:53:18;4.13;;;1.00;;
68214;SDS011;55036;52.138;5.236;2023-04-25T12:55:45;6.00;;;1.00;;
68214;SDS011;55036;52.138;5.236;2023-04-25T12:58:13;4.93;;;1.50;;
68214;SDS011;55036;52.138;5.236;2023-04-25T13:00:41;4.25;;;1.33;;
68214;SDS011;55036;52.138;5.236;2023-04-25T13:03:08;4.65;;;1.23;;
68214;SDS011;55036;52.138;5.236;2023-04-25T13:05:37;4.97;;;0.90;;
68214;SDS011;55036;52.138;5.236;2023-04-25T13:08:04;6.18;;;1.20;;
68214;SDS011;55036;52.138;5.236;2023-04-25T13:10:31;2.65;;;1.10;;
68214;SDS011;55036;52.138;5.236;2023-04-25T13:12:59;3.55;;;0.73;;
68214;SDS011;55036;52.138;5.236;2023-04-25T13:15:27;5.47;;;1.33;;
68214;SDS011;55036;52.138;5.236;2023-04-25T13:17:53;4.13;;;0.90;;
68214;SDS011;55036;52.138;5.236;2023-04-25T13:20:21;3.45;;;0.88;;
68214;SDS011;55036;52.138;5.236;2023-04-25T13:22:48;4.57;;;0.77;;
68214;SDS011;55036;52.138;5.236;2023-04-25T13:25:15;4.55;;;0.88;;
68214;SDS011;55036;52.138;5.236;2023-04-25T13:27:42;4.55;;;0.88;;
68214;SDS011;55036;52.138;5.236;2023-04-25T13:30:10;5.50;;;1.33;;
68214;SDS011;55036;52.138;5.236;2023-04-25T13:32:37;2.38;;;0.90;;
68214;SDS011;55036;52.138;5.236;2023-04-25T13:35:05;3.70;;;1.70;;
68214;SDS011;55036;52.138;5.236;2023-04-25T13:37:36;3.85;;;0.95;;
68214;SDS011;55036;52.138;5.236;2023-04-25T13:40:05;6.38;;;1.15;;
68214;SDS011;55036;52.138;5.236;2023-04-25T13:42:35;7.22;;;1.25;;
68214;SDS011;55036;52.138;5.236;2023-04-25T13:45:02;6.22;;;1.65;;
68214;SDS011;55036;52.138;5.236;2023-04-25T13:47:29;3.38;;;1.45;;
68214;SDS011;55036;52.138;5.236;2023-04-25T13:49:57;6.20;;;1.60;;
68214;SDS011;55036;52.138;5.236;2023-04-25T13:52:23;5.10;;;1.42;;
68214;SDS011;55036;52.138;5.236;2023-04-25T13:54:50;3.92;;;1.00;;
68214;SDS011;55036;52.138;5.236;2023-04-25T13:57:17;3.90;;;1.38;;
68214;SDS011;55036;52.138;5.236;2023-04-25T13:59:44;4.95;;;1.02;;
68214;SDS011;55036;52.138;5.236;2023-04-25T14:02:11;7.82;;;1.35;;
68214;SDS011;55036;52.138;5.236;2023-04-25T14:04:39;4.80;;;1.20;;
68214;SDS011;55036;52.138;5.236;2023-04-25T14:07:06;7.30;;;1.40;;
68214;SDS011;55036;52.138;5.236;2023-04-25T14:09:33;5.00;;;0.95;;
68214;SDS011;55036;52.138;5.236;2023-04-25T14:12:00;2.10;;;0.90;;
68214;SDS011;55036;52.138;5.236;2023-04-25T14:14:28;3.92;;;1.13;;
68214;SDS011;55036;52.138;5.236;2023-04-25T14:16:54;4.80;;;0.90;;
68214;SDS011;55036;52.138;5.236;2023-04-25T14:19:23;7.57;;;1.30;;
68214;SDS011;55036;52.138;5.236;2023-04-25T14:21:50;8.55;;;1.60;;
68214;SDS011;55036;52.138;5.236;2023-04-25T14:24:17;6.88;;;1.30;;
68214;SDS011;55036;52.138;5.236;2023-04-25T14:26:44;5.22;;;1.33;;
68214;SDS011;55036;52.138;5.236;2023-04-25T14:29:10;6.28;;;1.33;;
68214;SDS011;55036;52.138;5.236;2023-04-25T14:31:38;8.52;;;1.20;;
68214;SDS011;55036;52.138;5.236;2023-04-25T14:34:06;6.30;;;1.48;;
68214;SDS011;55036;52.138;5.236;2023-04-25T14:36:33;7.95;;;1.45;;
68214;SDS011;55036;52.138;5.236;2023-04-25T14:39:01;4.32;;;1.08;;
68214;SDS011;55036;52.138;5.236;2023-04-25T14:41:29;7.82;;;1.77;;
68214;SDS011;55036;52.138;5.236;2023-04-25T14:43:55;5.57;;;1.20;;
68214;SDS011;55036;52.138;5.236;2023-04-25T14:46:23;7.13;;;1.23;;
68214;SDS011;55036;52.138;5.236;2023-04-25T14:48:50;5.70;;;1.25;;
68214;SDS011;55036;52.138;5.236;2023-04-25T14:51:17;3.00;;;0.95;;
68214;SDS011;55036;52.138;5.236;2023-04-25T14:53:43;3.03;;;1.10;;
68214;SDS011;55036;52.138;5.236;2023-04-25T14:56:10;6.10;;;1.48;;
68214;SDS011;55036;52.138;5.236;2023-04-25T14:58:39;5.07;;;1.10;;
68214;SDS011;55036;52.138;5.236;2023-04-25T15:01:06;8.88;;;1.20;;
68214;SDS011;55036;52.138;5.236;2023-04-25T15:03:34;5.93;;;1.17;;